Time;durP1;ratioP1;P1;durP2;ratioP2;P2;SDS_P1;SDS_P2;PMS_P1;PMS_P2;Temp;Humidity;BMP_temperature;BMP_pressure;BME280_temperature;BME280_humidity;BME280_pressure;Samples;Min_cycle;Max_cycle;Signal;HPM_P1;HPM_P2
2023/01/20 00:01:08;;;;;;;8.38;3.10;;;;;;;8.31;92.57;92376.97;5031835;28;20100;-40
2023/01/20 00:03:34;;;;;;;2.53;2.25;;;;;;;8.18;92.97;92374.44;5031635;28;20138;-39
2023/01/20 00:05:59;;;;;;;9.60;3.58;;;;;;;8.20;93.22;92387.63;5031807;28;20100;-39
2023/01/20 00:08:24;;;;;;;8.77;3.45;;;;;;;8.17;94.35;92388.75;5030710;28;20029;-40
2023/01/20 00:10:50;;;;;;;7.93;3.45;;;;;;;7.87;95.83;92411.63;5031148;28;20025;-40
2023/01/20 00:13:15;;;;;;;7.53;3.33;;;;;;;7.82;95.88;92425.56;5031514;28;20032;-39
2023/01/20 00:15:41;;;;;;;4.20;2.40;;;;;;;7.75;97.02;92446.31;5031419;28;20544;-39
2023/01/20 00:18:06;;;;;;;6.18;2.20;;;;;;;7.82;96.32;92464.03;5031331;28;20721;-39
2023/01/20 00:20:32;;;;;;;4.57;3.10;;;;;;;7.59;99.37;92480.56;5031458;28;20052;-39
2023/01/20 00:22:57;;;;;;;4.40;2.97;;;;;;;7.55;98.62;92491.94;5031793;28;20026;-39
2023/01/20 00:25:22;;;;;;;3.00;2.40;;;;;;;7.41;99.66;92511.91;5031103;28;20044;-39
2023/01/20 00:27:52;;;;;;;6.65;2.60;;;;;;;7.28;99.24;92526.56;5031540;28;20041;-39
2023/01/20 00:30:17;;;;;;;;;;;;;;;7.21;99.08;92532.78;5031672;28;20113;-39
2023/01/20 00:32:44;;;;;;;2.85;1.80;;;;;;;7.09;99.17;92528.94;5031396;28;20008;-39
2023/01/20 00:35:12;;;;;;;1.90;1.60;;;;;;;7.18;99.16;92533.91;5031040;28;20103;-39
2023/01/20 00:37:38;;;;;;;1.98;1.40;;;;;;;7.18;99.51;92544.88;5031418;28;20037;-39
2023/01/20 00:40:05;;;;;;;1.15;1.05;;;;;;;7.19;98.09;92571.03;5031070;28;20490;-39
2023/01/20 00:42:30;;;;;;;2.20;1.42;;;;;;;7.34;95.16;92586.81;5031497;28;20031;-39
2023/01/20 00:44:56;;;;;;;1.13;1.02;;;;;;;7.07;95.46;92597.38;5030949;28;20405;-39
2023/01/20 00:47:21;;;;;;;3.15;0.90;;;;;;;7.20;94.02;92621.91;5030745;28;20532;-39
2023/01/20 00:49:47;;;;;;;1.90;0.70;;;;;;;7.00;95.47;92635.78;5030805;28;20029;-40
2023/01/20 00:52:13;;;;;;;2.28;1.05;;;;;;;6.88;94.46;92638.13;5031366;28;20028;-39
2023/01/20 00:54:38;;;;;;;3.42;0.80;;;;;;;6.97;94.77;92654.09;5030304;28;20017;-40
2023/01/20 00:57:04;;;;;;;4.68;1.63;;;;;;;6.64;94.97;92658.53;5030892;28;20022;-40
2023/01/20 00:59:29;;;;;;;0.60;0.60;;;;;;;6.71;94.30;92662.59;5030783;28;20401;-40
2023/01/20 01:01:55;;;;;;;5.05;3.15;;;;;;;6.78;94.20;92664.59;5030011;28;20545;-40
2023/01/20 01:04:20;;;;;;;5.07;3.38;;;;;;;6.57;94.85;92658.50;5030526;28;20119;-40
2023/01/20 01:06:46;;;;;;;8.82;2.72;;;;;;;6.57;95.27;92629.06;5030491;28;20493;-39
2023/01/20 01:09:11;;;;;;;2.63;1.63;;;;;;;6.33;96.48;92595.88;5030164;28;20025;-40
2023/01/20 01:11:36;;;;;;;3.75;1.13;;;;;;;6.47;96.08;92567.06;5030998;28;20021;-39
2023/01/20 01:14:02;;;;;;;0.75;0.75;;;;;;;5.82;100.00;92453.34;5030578;28;20037;-40
2023/01/20 01:16:27;;;;;;;0.73;0.65;;;;;;;5.82;100.00;92448.59;5030607;28;20029;-40
2023/01/20 01:18:53;;;;;;;0.70;0.70;;;;;;;5.63;100.00;92431.69;5030528;28;20033;-40
2023/01/20 01:21:19;;;;;;;0.75;0.60;;;;;;;5.56;100.00;92434.41;5050254;28;20055;-40
2023/01/20 01:23:45;;;;;;;1.70;0.82;;;;;;;5.61;100.00;92420.56;5048127;28;20033;-40
2023/01/20 01:26:11;;;;;;;0.93;0.60;;;;;;;5.74;100.00;92425.91;5029998;28;20067;-40
2023/01/20 01:28:37;;;;;;;1.60;1.30;;;;;;;5.83;100.00;92417.19;5030370;28;20029;-40
2023/01/20 01:31:03;;;;;;;1.17;0.90;;;;;;;5.96;100.00;92422.53;5030472;28;20454;-41
2023/01/20 01:33:30;;;;;;;1.30;1.20;;;;;;;5.95;100.00;92412.88;5029968;28;20087;-40
2023/01/20 01:35:57;;;;;;;4.75;3.30;;;;;;;6.11;100.00;92405.41;5040965;28;20041;-40
2023/01/20 01:38:22;;;;;;;3.22;1.52;;;;;;;5.99;100.00;92390.59;5043821;28;20647;-40
2023/01/20 01:40:50;;;;;;;1.58;1.48;;;;;;;6.05;100.00;92383.66;5029856;28;20017;-40
2023/01/20 01:43:24;;;;;;;5.70;1.60;;;;;;;6.04;100.00;92395.19;5030047;28;20021;-40
2023/01/20 01:45:49;;;;;;;2.60;2.08;;;;;;;6.02;100.00;92397.72;5029413;28;20026;-40
2023/01/20 01:48:15;;;;;;;2.10;1.90;;;;;;;6.04;100.00;92387.66;5029677;28;20091;-40
2023/01/20 01:50:47;;;;;;;0.70;0.70;;;;;;;5.95;100.00;92377.25;5029915;28;20030;-40
2023/01/20 01:53:13;;;;;;;0.85;0.70;;;;;;;5.81;100.00;92392.34;5029898;28;20026;-41
2023/01/20 01:55:44;;;;;;;0.60;0.60;;;;;;;5.84;100.00;92391.28;5029716;28;20438;-40
2023/01/20 01:58:13;;;;;;;0.60;0.60;;;;;;;5.81;100.00;92397.06;5029502;28;20120;-40
2023/01/20 02:00:39;;;;;;;1.00;0.75;;;;;;;5.78;100.00;92406.41;5028331;28;20103;-41
2023/01/20 02:03:05;;;;;;;0.60;0.60;;;;;;;5.79;100.00;92419.53;5029535;28;20513;-40
2023/01/20 02:05:31;;;;;;;0.30;0.30;;;;;;;5.62;100.00;92397.38;5027269;28;20060;-40
2023/01/20 02:07:57;;;;;;;0.40;0.40;;;;;;;5.89;100.00;92415.03;5029347;28;20072;-40
2023/01/20 02:10:23;;;;;;;0.60;0.32;;;;;;;5.70;100.00;92406.34;5029735;28;20025;-40
2023/01/20 02:12:50;;;;;;;0.57;0.57;;;;;;;5.91;99.45;92401.50;5029869;28;20555;-40
2023/01/20 02:15:16;;;;;;;1.45;0.40;;;;;;;5.89;100.00;92408.84;5027940;28;20025;-40
2023/01/20 02:18:23;;;;;;;0.40;0.40;;;;;;;5.99;97.71;92399.53;5029471;28;20021;-40
2023/01/20 02:20:54;;;;;;;0.30;0.30;;;;;;;6.05;97.70;92400.09;5044884;28;20389;-40
2023/01/20 02:23:45;;;;;;;0.30;0.30;;;;;;;6.15;95.59;92408.50;5049352;28;20021;-40
2023/01/20 02:26:46;;;;;;;0.35;0.35;;;;;;;6.09;98.50;92413.44;5009557;28;20108;-40
2023/01/20 02:29:36;;;;;;;0.60;0.60;;;;;;;6.16;97.31;92395.53;5008039;28;20509;-40
2023/01/20 02:32:12;;;;;;;0.52;0.40;;;;;;;6.20;98.16;92384.94;5009932;28;20033;-40
2023/01/20 02:34:49;;;;;;;0.77;0.47;;;;;;;6.10;98.81;92357.38;5028338;28;20032;-40
2023/01/20 02:37:22;;;;;;;0.40;0.40;;;;;;;6.26;98.03;92358.13;5048615;28;20074;-41
2023/01/20 02:40:09;;;;;;;0.40;0.40;;;;;;;6.09;99.54;92345.66;5031129;28;20501;-40
2023/01/20 02:42:55;;;;;;;1.20;0.60;;;;;;;5.94;100.00;92304.56;5029423;28;20029;-40
2023/01/20 02:45:24;;;;;;;0.50;0.40;;;;;;;5.87;100.00;92279.88;5027681;28;20033;-40
2023/01/20 02:47:54;;;;;;;0.40;0.40;;;;;;;5.91;100.00;92286.47;5027731;28;20025;-40
2023/01/20 02:50:22;;;;;;;0.40;0.40;;;;;;;5.94;100.00;92307.28;5029071;28;20045;-41
2023/01/20 02:52:51;;;;;;;1.05;0.55;;;;;;;5.95;100.00;92349.13;5028087;28;20021;-40
2023/01/20 02:55:26;;;;;;;0.95;0.75;;;;;;;5.91;100.00;92357.69;5027267;28;20037;-40
2023/01/20 02:57:57;;;;;;;3.42;0.63;;;;;;;5.84;100.00;92358.41;5027700;28;20124;-40
2023/01/20 03:00:29;;;;;;;0.70;0.50;;;;;;;5.89;100.00;92354.75;5028525;28;20036;-40
2023/01/20 03:02:56;;;;;;;0.63;0.52;;;;;;;5.98;100.00;92329.56;5028990;28;20033;-40
2023/01/20 03:05:28;;;;;;;0.80;0.80;;;;;;;5.87;100.00;92323.72;5028424;28;20034;-40
2023/01/20 03:07:54;;;;;;;0.82;0.50;;;;;;;5.99;100.00;92331.06;5027323;28;20029;-40
2023/01/20 03:10:23;;;;;;;1.08;0.60;;;;;;;6.05;100.00;92337.09;5027534;28;20029;-40
2023/01/20 03:12:55;;;;;;;0.40;0.40;;;;;;;6.09;100.00;92342.94;5028838;28;20061;-40
2023/01/20 03:15:24;;;;;;;0.60;0.60;;;;;;;6.04;100.00;92321.91;5028335;28;21118;-40
2023/01/20 03:17:50;;;;;;;0.63;0.63;;;;;;;6.07;100.00;92306.38;5030625;28;20112;-40
2023/01/20 03:20:16;;;;;;;0.75;0.50;;;;;;;6.20;100.00;92303.47;5032507;28;20394;-40
2023/01/20 03:22:42;;;;;;;0.95;0.60;;;;;;;6.28;100.00;92293.22;5033057;28;20107;-40
2023/01/20 03:25:09;;;;;;;0.70;0.40;;;;;;;6.19;100.00;92282.09;5032501;28;20513;-40
2023/01/20 03:27:34;;;;;;;1.95;0.50;;;;;;;6.25;100.00;92282.66;5031291;28;20033;-40
2023/01/20 03:30:00;;;;;;;0.40;0.40;;;;;;;6.28;100.00;92279.53;5031303;28;20479;-40
2023/01/20 03:32:25;;;;;;;0.77;0.50;;;;;;;6.32;100.00;92273.69;5032726;28;20132;-40
2023/01/20 03:34:53;;;;;;;1.30;0.50;;;;;;;6.20;100.00;92264.38;5032504;28;20053;-40
2023/01/20 03:37:19;;;;;;;1.63;0.50;;;;;;;6.16;100.00;92283.94;5031991;28;20056;-40
2023/01/20 03:39:44;;;;;;;0.75;0.60;;;;;;;6.30;100.00;92292.69;5031134;28;20017;-40
2023/01/20 03:42:29;;;;;;;0.80;0.35;;;;;;;6.24;100.00;92278.47;5030940;28;20029;-40
2023/01/20 03:45:17;;;;;;;1.55;0.38;;;;;;;6.38;100.00;92294.16;4998119;28;20062;-40
2023/01/20 03:48:06;;;;;;;0.63;0.57;;;;;;;6.40;100.00;92285.38;5032171;28;20040;-40
2023/01/20 03:50:51;;;;;;;0.40;0.40;;;;;;;6.30;100.00;92287.97;5031966;28;20029;-40
2023/01/20 03:53:23;;;;;;;0.32;0.32;;;;;;;6.28;100.00;92287.03;5032377;28;20064;-40
2023/01/20 03:56:34;;;;;;;0.52;0.52;;;;;;;6.27;100.00;92278.09;5032006;28;20022;-40
2023/01/20 03:59:00;;;;;;;0.35;0.35;;;;;;;6.30;100.00;92287.22;5008806;28;20073;-40
2023/01/20 04:01:30;;;;;;;1.13;0.55;;;;;;;6.17;100.00;92279.19;5010648;28;20491;-40
2023/01/20 04:03:56;;;;;;;0.30;0.30;;;;;;;6.21;100.00;92285.03;5012157;28;20092;-40
2023/01/20 04:06:25;;;;;;;1.38;0.40;;;;;;;6.11;100.00;92277.34;5011721;28;20037;-40
2023/01/20 04:08:56;;;;;;;0.40;0.40;;;;;;;6.17;100.00;92279.19;5010601;28;20037;-40
2023/01/20 04:11:22;;;;;;;0.75;0.73;;;;;;;6.17;100.00;92277.19;5011741;28;20500;-40
2023/01/20 04:13:49;;;;;;;0.40;0.32;;;;;;;6.23;100.00;92252.31;5012258;28;20025;-40
2023/01/20 04:16:16;;;;;;;0.30;0.30;;;;;;;6.18;100.00;92245.00;5011838;28;20025;-40
2023/01/20 04:18:45;;;;;;;0.52;0.40;;;;;;;6.33;100.00;92253.94;5010602;28;20474;-40
2023/01/20 04:21:38;;;;;;;0.57;0.55;;;;;;;6.13;100.00;92251.41;5048447;28;20127;-40
2023/01/20 04:24:07;;;;;;;1.27;0.40;;;;;;;6.01;100.00;92251.78;5041561;28;20029;-40
2023/01/20 04:26:32;;;;;;;2.28;0.55;;;;;;;6.10;100.00;92253.25;5031213;28;20033;-40
2023/01/20 04:28:58;;;;;;;1.08;0.55;;;;;;;6.13;100.00;92245.94;5030533;28;20026;-40
2023/01/20 04:31:23;;;;;;;3.20;0.63;;;;;;;6.09;100.00;92232.59;5031058;28;20036;-40
2023/01/20 04:33:48;;;;;;;0.50;0.50;;;;;;;6.15;100.00;92224.19;5031792;28;20041;-40
2023/01/20 04:36:14;;;;;;;0.45;0.45;;;;;;;6.13;100.00;92209.03;5045982;28;20045;-40
2023/01/20 04:38:39;;;;;;;3.40;0.60;;;;;;;6.18;100.00;92214.84;5042685;28;20033;-40
2023/01/20 04:41:05;;;;;;;0.82;0.60;;;;;;;6.13;100.00;92202.09;5030956;28;20021;-40
2023/01/20 04:43:31;;;;;;;0.30;0.30;;;;;;;6.19;100.00;92219.06;5031243;28;20033;-40
2023/01/20 04:45:56;;;;;;;0.95;0.60;;;;;;;6.13;100.00;92208.28;5030921;28;20413;-40
2023/01/20 04:48:22;;;;;;;0.82;0.80;;;;;;;6.22;100.00;92201.50;5030823;28;20108;-40
2023/01/20 04:50:47;;;;;;;0.50;0.50;;;;;;;6.16;100.00;92211.94;5031034;28;20036;-40
2023/01/20 04:53:15;;;;;;;0.57;0.57;;;;;;;6.13;100.00;92202.81;5030761;28;20040;-40
2023/01/20 04:55:41;;;;;;;0.57;0.57;;;;;;;6.16;100.00;92198.25;5030730;28;20055;-40
2023/01/20 04:58:08;;;;;;;0.40;0.40;;;;;;;6.27;100.00;92206.09;5030638;28;20025;-40
2023/01/20 05:00:34;;;;;;;0.40;0.40;;;;;;;6.23;100.00;92216.69;5030488;28;20036;-40
2023/01/20 05:03:01;;;;;;;0.93;0.70;;;;;;;6.24;100.00;92227.09;5030968;28;20021;-40
2023/01/20 05:05:26;;;;;;;1.85;0.98;;;;;;;6.15;100.00;92211.22;5030532;28;20044;-40
2023/01/20 05:07:52;;;;;;;2.03;1.40;;;;;;;6.09;100.00;92205.94;5030421;28;20021;-40
2023/01/20 05:10:18;;;;;;;2.08;1.60;;;;;;;6.15;100.00;92210.50;5030729;28;20025;-40
2023/01/20 05:12:44;;;;;;;1.67;1.40;;;;;;;6.25;100.00;92203.91;5030717;28;20029;-40
2023/01/20 05:15:10;;;;;;;1.00;0.88;;;;;;;6.31;100.00;92188.00;5030810;28;20025;-40
2023/01/20 05:17:35;;;;;;;0.60;0.60;;;;;;;6.23;100.00;92184.53;5030460;28;20425;-39
2023/01/20 05:20:01;;;;;;;0.57;0.57;;;;;;;6.11;100.00;92173.22;5030121;28;20505;-40
2023/01/20 05:22:27;;;;;;;0.77;0.57;;;;;;;6.17;100.00;92175.06;5030636;28;20103;-40
2023/01/20 05:24:52;;;;;;;1.70;1.60;;;;;;;5.99;100.00;92163.94;5030419;28;20032;-40
2023/01/20 05:27:18;;;;;;;1.00;0.88;;;;;;;6.17;100.00;92186.75;5030313;28;20417;-40
2023/01/20 05:29:43;;;;;;;1.00;0.90;;;;;;;6.27;100.00;92195.13;5030264;28;20485;-40
2023/01/20 05:32:09;;;;;;;0.75;0.75;;;;;;;6.34;100.00;92197.13;5030128;28;20497;-40
2023/01/20 05:34:34;;;;;;;0.85;0.80;;;;;;;6.31;100.00;92196.22;5030138;28;20021;-40
2023/01/20 05:36:59;;;;;;;1.30;1.05;;;;;;;6.23;100.00;92198.25;5029728;28;20056;-40
2023/01/20 05:39:25;;;;;;;1.10;1.10;;;;;;;6.32;100.00;92203.16;5029103;28;20044;-40
2023/01/20 05:41:50;;;;;;;0.70;0.70;;;;;;;6.28;100.00;92204.81;5029464;28;20021;-40
2023/01/20 05:44:16;;;;;;;1.02;1.00;;;;;;;6.38;100.00;92209.19;5029705;28;20041;-39
2023/01/20 05:46:41;;;;;;;1.10;1.00;;;;;;;6.34;100.00;92205.34;5029378;28;20044;-40
2023/01/20 05:49:10;;;;;;;0.80;0.80;;;;;;;6.30;100.00;92200.25;5029456;28;20033;-39
2023/01/20 05:51:35;;;;;;;2.43;0.73;;;;;;;6.30;100.00;92205.72;5029957;28;20064;-40
2023/01/20 05:54:00;;;;;;;1.92;0.93;;;;;;;6.36;100.00;92202.78;5030127;28;20079;-40
2023/01/20 05:56:26;;;;;;;0.55;0.55;;;;;;;6.54;100.00;92209.88;5029804;28;20037;-40
2023/01/20 05:58:55;;;;;;;1.52;0.68;;;;;;;6.67;100.00;92204.16;5029737;28;20029;-40
2023/01/20 06:01:20;;;;;;;2.20;0.90;;;;;;;6.62;100.00;92208.56;5029591;28;20031;-40
2023/01/20 06:03:46;;;;;;;1.02;1.00;;;;;;;6.51;100.00;92203.47;5029468;28;20034;-39
2023/01/20 06:06:17;;;;;;;2.83;1.20;;;;;;;6.29;100.00;92195.28;5029329;28;20037;-40
2023/01/20 06:08:42;;;;;;;3.75;1.27;;;;;;;6.32;100.00;92213.38;5029655;28;20029;-39
2023/01/20 06:11:08;;;;;;;1.48;1.20;;;;;;;6.21;100.00;92219.25;5029476;28;20064;-40
2023/01/20 06:13:38;;;;;;;6.07;1.00;;;;;;;6.23;100.00;92222.91;5029084;28;20029;-40
2023/01/20 06:16:04;;;;;;;1.38;1.27;;;;;;;6.22;100.00;92213.22;5029386;28;20032;-40
2023/01/20 06:18:30;;;;;;;14.73;3.17;;;;;;;6.13;100.00;92222.00;5028180;28;20033;-40
2023/01/20 06:20:57;;;;;;;2.13;0.85;;;;;;;6.04;100.00;92222.56;5028954;28;20021;-40
2023/01/20 06:23:22;;;;;;;3.30;1.02;;;;;;;6.12;100.00;92236.97;5029439;28;20057;-39
2023/01/20 06:25:48;;;;;;;3.22;0.98;;;;;;;6.17;100.00;92230.59;5029082;28;20462;-39
2023/01/20 06:28:13;;;;;;;1.90;1.23;;;;;;;6.13;100.00;92224.72;5028892;28;20033;-40
2023/01/20 06:30:41;;;;;;;2.92;1.38;;;;;;;6.47;100.00;92210.63;5029528;28;20025;-39
2023/01/20 06:33:09;;;;;;;3.63;2.10;;;;;;;6.50;100.00;92193.03;5029353;28;20071;-39
2023/01/20 06:35:35;;;;;;;3.58;2.08;;;;;;;6.43;100.00;92213.00;5028777;28;20140;-39
2023/01/20 06:38:01;;;;;;;2.40;1.52;;;;;;;6.37;100.00;92201.47;5029427;28;20052;-40
2023/01/20 06:40:26;;;;;;;5.30;1.67;;;;;;;6.34;100.00;92206.09;5028961;28;20051;-39
2023/01/20 06:42:51;;;;;;;2.53;1.40;;;;;;;6.47;100.00;92196.91;5028761;28;20056;-39
2023/01/20 06:45:17;;;;;;;4.45;1.55;;;;;;;6.39;100.00;92207.88;5028321;28;20038;-40
2023/01/20 06:47:43;;;;;;;2.53;1.20;;;;;;;6.35;100.00;92210.28;5029151;28;20033;-39
2023/01/20 06:50:08;;;;;;;1.45;1.10;;;;;;;6.35;100.00;92206.78;5027336;28;20064;-40
2023/01/20 06:52:34;;;;;;;1.77;1.30;;;;;;;6.47;100.00;92214.09;5028655;28;20033;-40
2023/01/20 06:54:59;;;;;;;2.50;1.45;;;;;;;6.47;100.00;92213.34;5029196;28;20449;-40
2023/01/20 06:57:25;;;;;;;2.25;1.30;;;;;;;6.63;100.00;92212.03;5028811;28;20025;-40
2023/01/20 06:59:50;;;;;;;4.22;1.52;;;;;;;6.71;100.00;92215.50;5028755;28;20470;-39
2023/01/20 07:02:15;;;;;;;3.83;1.08;;;;;;;6.69;100.00;92218.06;5028788;28;20033;-39
2023/01/20 07:04:41;;;;;;;5.22;1.67;;;;;;;6.73;100.00;92223.91;5028480;28;20025;-40
2023/01/20 07:07:10;;;;;;;2.90;1.33;;;;;;;6.75;100.00;92232.28;5028653;28;20087;-39
2023/01/20 07:09:35;;;;;;;1.02;1.00;;;;;;;6.56;100.00;92232.00;5027558;28;20044;-40
2023/01/20 07:12:01;;;;;;;3.13;1.77;;;;;;;6.58;100.00;92241.09;5028602;28;20029;-40
2023/01/20 07:14:26;;;;;;;5.30;1.50;;;;;;;6.77;100.00;92246.19;5028905;28;20026;-39
2023/01/20 07:16:52;;;;;;;2.65;1.33;;;;;;;6.75;100.00;92252.22;5028849;28;20433;-39
2023/01/20 07:19:17;;;;;;;1.38;1.27;;;;;;;6.68;100.00;92246.75;5028425;28;20025;-40
2023/01/20 07:21:43;;;;;;;2.35;1.30;;;;;;;6.55;100.00;92252.44;5028954;28;20084;-40
2023/01/20 07:24:08;;;;;;;3.13;1.10;;;;;;;6.65;100.00;92264.31;5028218;28;20029;-39
2023/01/20 07:26:35;;;;;;;4.38;2.78;;;;;;;6.65;100.00;92256.81;5028394;28;20080;-40
2023/01/20 07:29:00;;;;;;;1.83;1.38;;;;;;;6.43;100.00;92235.66;5028925;28;20029;-40
2023/01/20 07:31:27;;;;;;;4.60;2.58;;;;;;;6.60;100.00;92246.78;5028457;28;20029;-39
2023/01/20 07:33:54;;;;;;;6.13;2.40;;;;;;;6.67;100.00;92248.75;5028358;28;20053;-40
2023/01/20 07:36:19;;;;;;;7.72;2.35;;;;;;;6.62;100.00;92257.94;5027060;28;20053;-40
2023/01/20 07:38:49;;;;;;;2.60;1.13;;;;;;;6.63;100.00;92258.66;5028437;28;20669;-39
2023/01/20 07:41:16;;;;;;;4.97;2.33;;;;;;;6.68;100.00;92274.19;5028572;28;20029;-40
2023/01/20 07:43:43;;;;;;;2.85;1.45;;;;;;;6.49;100.00;92266.38;5028054;28;20029;-40
2023/01/20 07:46:09;;;;;;;3.80;1.67;;;;;;;6.52;100.00;92273.47;5028113;28;20025;-40
2023/01/20 07:48:34;;;;;;;2.20;1.60;;;;;;;6.50;100.00;92294.50;5028453;28;20692;-39
2023/01/20 07:51:02;;;;;;;6.50;1.23;;;;;;;6.40;100.00;92301.81;5028581;28;20029;-40
2023/01/20 07:53:32;;;;;;;2.47;0.88;;;;;;;6.24;100.00;92317.53;5028115;28;20032;-40
2023/01/20 07:56:05;;;;;;;1.23;0.95;;;;;;;6.11;100.00;92329.41;5027431;28;20029;-40
2023/01/20 07:58:30;;;;;;;0.60;0.60;;;;;;;6.01;100.00;92330.50;5026901;28;20026;-40
2023/01/20 08:00:56;;;;;;;4.55;0.95;;;;;;;5.97;100.00;92328.13;5028403;28;20121;-41
2023/01/20 08:03:22;;;;;;;1.77;0.90;;;;;;;5.87;100.00;92313.50;5029161;28;20033;-40
2023/01/20 08:05:47;;;;;;;1.02;0.90;;;;;;;5.82;100.00;92303.44;5031589;28;20446;-41
2023/01/20 08:08:12;;;;;;;2.50;0.90;;;;;;;5.82;100.00;92283.53;5031808;28;20061;-41
2023/01/20 08:10:38;;;;;;;2.95;0.63;;;;;;;5.80;100.00;92281.34;5031911;28;20021;-41
2023/01/20 08:13:03;;;;;;;0.68;0.68;;;;;;;5.74;100.00;92288.97;5031859;28;20547;-41
2023/01/20 08:15:29;;;;;;;1.35;0.88;;;;;;;5.66;100.00;92269.06;5031741;28;20523;-41
2023/01/20 08:17:55;;;;;;;16.33;8.02;;;;;;;5.68;100.00;92290.41;5031390;28;20036;-41
2023/01/20 08:20:21;;;;;;;1.45;1.23;;;;;;;5.65;100.00;92288.78;5031731;28;20072;-40
2023/01/20 08:22:46;;;;;;;2.72;0.88;;;;;;;5.63;100.00;92297.53;5031517;28;20112;-40
2023/01/20 08:25:12;;;;;;;5.90;1.50;;;;;;;5.65;100.00;92314.16;5031049;28;20025;-40
2023/01/20 08:27:37;;;;;;;1.33;0.82;;;;;;;5.62;100.00;92320.72;5031729;28;20037;-41
2023/01/20 08:30:03;;;;;;;0.70;0.70;;;;;;;5.59;100.00;92316.31;5031441;28;20025;-40
2023/01/20 08:32:29;;;;;;;1.55;1.10;;;;;;;5.51;100.00;92320.31;5031117;28;20029;-41
2023/01/20 08:34:55;;;;;;;2.35;1.10;;;;;;;5.59;100.00;92316.31;5031263;28;20022;-40
2023/01/20 08:37:20;;;;;;;1.73;1.17;;;;;;;5.49;100.00;92323.59;5031436;28;20025;-40
2023/01/20 08:39:46;;;;;;;0.88;0.70;;;;;;;5.51;100.00;92303.91;5030880;28;20033;-40
2023/01/20 08:42:11;;;;;;;8.98;5.35;;;;;;;5.46;100.00;92256.25;5031324;28;20135;-40
2023/01/20 08:44:37;;;;;;;11.57;6.55;;;;;;;5.25;100.00;92174.31;5030952;28;20555;-40
2023/01/20 08:47:02;;;;;;;5.57;3.13;;;;;;;5.11;100.00;92131.25;5030882;28;20098;-40
2023/01/20 08:49:28;;;;;;;1.38;1.23;;;;;;;5.25;100.00;92148.94;5030784;28;20033;-40
2023/01/20 08:51:55;;;;;;;0.98;0.93;;;;;;;5.32;100.00;92151.69;5031113;28;20390;-40
2023/01/20 08:54:21;;;;;;;1.10;1.00;;;;;;;5.37;100.00;92156.25;5030902;28;20025;-40
2023/01/20 08:56:50;;;;;;;1.05;0.60;;;;;;;5.45;100.00;92150.78;5030863;28;20037;-40
2023/01/20 08:59:15;;;;;;;1.35;1.08;;;;;;;5.44;100.00;92130.16;5030885;28;20354;-40
2023/01/20 09:01:42;;;;;;;1.58;1.02;;;;;;;5.36;100.00;92143.13;5030616;28;20037;-40
2023/01/20 09:04:08;;;;;;;0.63;0.63;;;;;;;5.51;100.00;92156.81;5030529;28;20037;-40
2023/01/20 09:06:45;;;;;;;5.15;1.95;;;;;;;5.52;100.00;92146.59;5030835;28;20108;-40
2023/01/20 09:09:12;;;;;;;3.63;0.63;;;;;;;5.58;100.00;92136.91;5030383;28;20033;-40
2023/01/20 09:11:38;;;;;;;0.90;0.77;;;;;;;5.46;100.00;92144.03;5029403;28;20096;-40
2023/01/20 09:14:03;;;;;;;3.05;1.95;;;;;;;5.55;100.00;92156.44;5030121;28;20512;-40
2023/01/20 09:16:29;;;;;;;0.95;0.63;;;;;;;5.63;100.00;92149.69;5030403;28;20498;-40
2023/01/20 09:18:55;;;;;;;4.03;1.13;;;;;;;5.63;100.00;92141.47;5030692;28;20052;-40
2023/01/20 09:21:20;;;;;;;1.83;1.52;;;;;;;5.52;100.00;92130.91;5029720;28;20484;-40
2023/01/20 09:23:47;;;;;;;1.38;1.20;;;;;;;5.53;100.00;92132.34;5029918;28;20048;-40
2023/01/20 09:26:12;;;;;;;0.70;0.70;;;;;;;5.63;100.00;92140.75;5030268;28;20465;-40
2023/01/20 09:28:38;;;;;;;1.35;0.60;;;;;;;5.74;100.00;92145.88;5030136;28;20116;-40
2023/01/20 09:31:08;;;;;;;7.07;1.45;;;;;;;5.88;100.00;92144.41;5030171;28;20037;-40
2023/01/20 09:33:36;;;;;;;1.00;0.90;;;;;;;6.00;100.00;92120.81;5029975;28;20056;-40
2023/01/20 09:36:03;;;;;;;0.82;0.80;;;;;;;6.17;100.00;92122.97;5029693;28;20134;-40
2023/01/20 09:44:18;;;;;;;8.30;5.05;;;;;;;6.73;100.00;92103.22;5030103;28;20044;-40
2023/01/20 09:47:21;;;;;;;17.30;8.95;;;;;;;7.03;100.00;92091.31;5028305;28;20044;-40
2023/01/20 09:55:33;;;;;;;2.88;1.80;;;;;;;7.37;100.00;92069.47;5029593;28;20433;-40
2023/01/20 09:58:26;;;;;;;3.38;1.70;;;;;;;7.53;100.00;92057.84;5030034;28;20520;-40
2023/01/20 10:00:57;;;;;;;7.85;4.38;;;;;;;7.40;98.98;92047.16;5001484;28;20114;-40
2023/01/20 10:03:37;;;;;;;10.52;4.22;;;;;;;7.64;100.00;92053.88;5029396;28;20037;-40
2023/01/20 10:06:16;;;;;;;7.88;3.38;;;;;;;7.65;100.00;92053.31;5028768;28;20088;-40
2023/01/20 10:09:02;;;;;;;9.52;6.60;;;;;;;7.83;100.00;92053.34;5029812;28;20118;-40
2023/01/20 10:11:30;;;;;;;9.20;5.15;;;;;;;7.80;98.19;92052.44;5029556;28;20091;-40
2023/01/20 10:14:05;;;;;;;7.22;4.47;;;;;;;7.82;96.88;92049.16;5029688;28;20053;-40
2023/01/20 10:16:39;;;;;;;8.30;3.97;;;;;;;7.65;96.31;92031.34;5028386;28;20552;-40
2023/01/20 10:19:25;;;;;;;3.22;1.02;;;;;;;7.40;93.85;92019.69;5029171;28;20549;-40
2023/01/20 10:22:14;;;;;;;4.68;2.42;;;;;;;8.07;92.48;92003.06;5047940;28;20566;-40
2023/01/20 10:24:49;;;;;;;4.88;2.92;;;;;;;8.58;92.47;91996.75;5039783;28;20486;-40
2023/01/20 10:27:15;;;;;;;8.02;3.15;;;;;;;9.30;88.81;91990.53;5027796;28;20068;-40
2023/01/20 10:29:44;;;;;;;5.68;1.70;;;;;;;10.92;82.16;91982.28;5029353;28;20110;-40
2023/01/20 10:32:35;;;;;;;0.82;0.82;;;;;;;12.98;72.84;91963.22;5029018;28;20063;-41
2023/01/20 10:35:14;;;;;;;0.43;0.40;;;;;;;14.37;65.81;91958.28;5027750;28;20729;-40
2023/01/20 10:37:40;;;;;;;0.40;0.40;;;;;;;14.72;63.11;91974.78;5027785;28;20034;-40
2023/01/20 10:40:16;;;;;;;0.40;0.30;;;;;;;14.95;62.43;91971.16;5009126;28;20025;-40
2023/01/20 10:42:53;;;;;;;1.15;0.40;;;;;;;14.60;62.35;91970.59;5009475;28;20096;-40
2023/01/20 10:45:32;;;;;;;0.43;0.40;;;;;;;14.61;58.08;91958.91;5014131;28;20042;-40
2023/01/20 10:48:03;;;;;;;0.80;0.60;;;;;;;15.05;59.24;91950.19;5028900;28;20509;-40
2023/01/20 10:50:34;;;;;;;2.33;0.40;;;;;;;14.68;57.00;91944.03;5029258;28;20114;-40
2023/01/20 10:53:09;;;;;;;0.30;0.30;;;;;;;14.71;58.81;91942.78;5028804;28;20037;-40
2023/01/20 10:56:01;;;;;;;1.40;0.38;;;;;;;14.84;57.01;91950.44;5028967;28;20033;-40
2023/01/20 10:58:39;;;;;;;1.08;0.40;;;;;;;14.20;55.22;91938.53;5027630;28;20041;-40
2023/01/20 11:01:08;;;;;;;1.50;0.50;;;;;;;12.72;62.35;91934.63;5027402;28;20045;-40
2023/01/20 11:03:40;;;;;;;1.05;0.45;;;;;;;11.96;66.02;91933.28;5028989;28;20029;-40
2023/01/20 11:06:06;;;;;;;1.33;0.60;;;;;;;12.33;63.40;91932.81;5027848;28;20041;-39
2023/01/20 11:08:32;;;;;;;2.00;0.82;;;;;;;11.61;66.84;91937.88;5027323;28;20488;-40
2023/01/20 11:11:09;;;;;;;0.60;0.60;;;;;;;11.29;71.25;91924.69;5028661;28;20044;-40
2023/01/20 11:13:34;;;;;;;3.60;0.93;;;;;;;11.71;67.09;91949.63;5027321;28;20026;-40
2023/01/20 11:16:03;;;;;;;3.80;0.90;;;;;;;11.15;69.99;91962.44;5027506;28;20040;-40
2023/01/20 11:18:30;;;;;;;1.27;0.73;;;;;;;10.74;70.28;91961.72;5027667;28;20034;-40
2023/01/20 11:21:07;;;;;;;1.52;0.60;;;;;;;10.73;69.72;91954.00;5028372;28;20590;-40
2023/01/20 11:23:48;;;;;;;1.85;0.65;;;;;;;10.05;69.98;91960.91;5027218;28;20030;-39
2023/01/20 11:26:22;;;;;;;0.88;0.57;;;;;;;9.57;71.04;91958.84;5008887;28;20029;-40
2023/01/20 11:28:52;;;;;;;0.80;0.30;;;;;;;9.40;74.49;91952.75;5008961;28;20037;-39
2023/01/20 11:31:19;;;;;;;4.05;1.15;;;;;;;9.36;74.48;91958.66;5008739;28;20038;-39
2023/01/20 11:33:59;;;;;;;0.82;0.73;;;;;;;9.16;73.87;91965.44;5007801;28;20033;-39
2023/01/20 11:36:26;;;;;;;3.05;0.65;;;;;;;8.97;75.46;91949.59;5041565;28;20503;-40
2023/01/20 11:38:53;;;;;;;0.40;0.40;;;;;;;9.21;75.52;91944.44;5041914;28;20091;-40
2023/01/20 11:41:20;;;;;;;0.80;0.68;;;;;;;9.31;75.92;91940.41;5032001;28;20067;-40
2023/01/20 11:43:46;;;;;;;0.40;0.40;;;;;;;9.32;75.76;91946.63;5032034;28;20060;-39
2023/01/20 11:46:25;;;;;;;2.22;1.05;;;;;;;9.08;78.03;91948.31;5030649;28;20033;-40
2023/01/20 11:49:10;;;;;;;1.73;1.00;;;;;;;9.02;77.49;91934.81;5032314;28;20108;-40
2023/01/20 11:51:43;;;;;;;0.60;0.60;;;;;;;8.97;76.03;91938.56;5031043;28;20461;-39
2023/01/20 11:54:14;;;;;;;0.80;0.80;;;;;;;8.86;77.41;91941.13;5032242;28;20039;-40